sensor_id;sensor_type;location;lat;lon;timestamp;temperature;humidity
18450;DHT22;9354;50.194;7.690;2023-05-16T00:01:25;12.30;99.90
18450;DHT22;9354;50.194;7.690;2023-05-16T00:03:56;12.30;99.90
18450;DHT22;9354;50.194;7.690;2023-05-16T00:06:23;12.20;99.90
18450;DHT22;9354;50.194;7.690;2023-05-16T00:08:51;12.20;99.90
18450;DHT22;9354;50.194;7.690;2023-05-16T00:11:18;12.20;99.90
18450;DHT22;9354;50.194;7.690;2023-05-16T00:13:46;12.20;99.90
18450;DHT22;9354;50.194;7.690;2023-05-16T00:16:14;12.20;99.90
18450;DHT22;9354;50.194;7.690;2023-05-16T00:18:41;12.20;99.90
18450;DHT22;9354;50.194;7.690;2023-05-16T00:21:11;12.10;99.90
18450;DHT22;9354;50.194;7.690;2023-05-16T00:23:39;12.10;99.90
18450;DHT22;9354;50.194;7.690;2023-05-16T00:26:06;12.10;99.90
18450;DHT22;9354;50.194;7.690;2023-05-16T00:28:34;12.10;99.90
18450;DHT22;9354;50.194;7.690;2023-05-16T00:31:01;12.00;99.90
18450;DHT22;9354;50.194;7.690;2023-05-16T00:33:28;12.00;99.90
18450;DHT22;9354;50.194;7.690;2023-05-16T00:35:56;12.00;99.90
18450;DHT22;9354;50.194;7.690;2023-05-16T00:38:25;12.00;99.90
18450;DHT22;9354;50.194;7.690;2023-05-16T00:40:52;12.00;99.90
18450;DHT22;9354;50.194;7.690;2023-05-16T00:43:20;12.00;99.90
18450;DHT22;9354;50.194;7.690;2023-05-16T00:45:47;12.00;99.90
18450;DHT22;9354;50.194;7.690;2023-05-16T00:48:14;12.00;99.90
18450;DHT22;9354;50.194;7.690;2023-05-16T00:50:42;11.90;99.90
18450;DHT22;9354;50.194;7.690;2023-05-16T00:53:10;11.90;99.90
18450;DHT22;9354;50.194;7.690;2023-05-16T00:55:39;11.90;99.90
18450;DHT22;9354;50.194;7.690;2023-05-16T00:58:06;11.80;99.90
18450;DHT22;9354;50.194;7.690;2023-05-16T01:00:34;11.80;99.90
18450;DHT22;9354;50.194;7.690;2023-05-16T01:03:04;11.80;99.90
18450;DHT22;9354;50.194;7.690;2023-05-16T01:05:32;11.70;99.90
18450;DHT22;9354;50.194;7.690;2023-05-16T01:07:59;11.70;99.90
18450;DHT22;9354;50.194;7.690;2023-05-16T01:10:34;11.70;99.90
18450;DHT22;9354;50.194;7.690;2023-05-16T01:13:10;11.70;99.90
18450;DHT22;9354;50.194;7.690;2023-05-16T01:15:43;11.60;99.90
18450;DHT22;9354;50.194;7.690;2023-05-16T01:18:18;11.60;99.90
18450;DHT22;9354;50.194;7.690;2023-05-16T01:20:51;11.60;99.90
18450;DHT22;9354;50.194;7.690;2023-05-16T01:23:32;11.60;99.90
18450;DHT22;9354;50.194;7.690;2023-05-16T01:26:19;11.60;99.90
18450;DHT22;9354;50.194;7.690;2023-05-16T01:28:48;11.60;99.90
18450;DHT22;9354;50.194;7.690;2023-05-16T01:31:16;11.50;99.90
18450;DHT22;9354;50.194;7.690;2023-05-16T01:33:44;11.50;99.90
18450;DHT22;9354;50.194;7.690;2023-05-16T01:36:19;11.50;99.90
18450;DHT22;9354;50.194;7.690;2023-05-16T01:38:59;11.50;99.90
18450;DHT22;9354;50.194;7.690;2023-05-16T01:41:33;11.50;99.90
18450;DHT22;9354;50.194;7.690;2023-05-16T01:44:11;11.50;99.90
18450;DHT22;9354;50.194;7.690;2023-05-16T01:46:45;11.50;99.90
18450;DHT22;9354;50.194;7.690;2023-05-16T01:49:16;11.50;99.90
18450;DHT22;9354;50.194;7.690;2023-05-16T01:51:50;11.50;99.90
18450;DHT22;9354;50.194;7.690;2023-05-16T01:54:19;11.40;99.90
18450;DHT22;9354;50.194;7.690;2023-05-16T01:56:51;11.40;99.90
18450;DHT22;9354;50.194;7.690;2023-05-16T01:59:20;11.30;99.90
18450;DHT22;9354;50.194;7.690;2023-05-16T02:01:48;11.30;99.90
18450;DHT22;9354;50.194;7.690;2023-05-16T02:04:17;11.30;99.90
18450;DHT22;9354;50.194;7.690;2023-05-16T02:06:44;11.30;99.90
18450;DHT22;9354;50.194;7.690;2023-05-16T02:09:12;11.30;99.90
18450;DHT22;9354;50.194;7.690;2023-05-16T02:11:39;11.20;99.90
18450;DHT22;9354;50.194;7.690;2023-05-16T02:14:08;11.20;99.90
18450;DHT22;9354;50.194;7.690;2023-05-16T02:16:35;11.20;99.90
18450;DHT22;9354;50.194;7.690;2023-05-16T02:19:03;11.20;99.90
18450;DHT22;9354;50.194;7.690;2023-05-16T02:21:31;11.20;99.90
18450;DHT22;9354;50.194;7.690;2023-05-16T02:23:58;11.20;99.90
18450;DHT22;9354;50.194;7.690;2023-05-16T02:26:25;11.20;99.90
18450;DHT22;9354;50.194;7.690;2023-05-16T02:28:53;11.20;99.90
18450;DHT22;9354;50.194;7.690;2023-05-16T02:31:28;11.20;99.90
18450;DHT22;9354;50.194;7.690;2023-05-16T02:33:56;11.20;99.90
18450;DHT22;9354;50.194;7.690;2023-05-16T02:36:24;11.20;99.90
18450;DHT22;9354;50.194;7.690;2023-05-16T02:38:51;11.20;99.90
18450;DHT22;9354;50.194;7.690;2023-05-16T02:41:19;11.20;99.90
18450;DHT22;9354;50.194;7.690;2023-05-16T02:43:47;11.10;99.90
18450;DHT22;9354;50.194;7.690;2023-05-16T02:46:22;11.10;99.90
18450;DHT22;9354;50.194;7.690;2023-05-16T02:48:51;11.10;99.90
18450;DHT22;9354;50.194;7.690;2023-05-16T02:51:19;11.10;99.90
18450;DHT22;9354;50.194;7.690;2023-05-16T02:53:47;11.10;99.90
18450;DHT22;9354;50.194;7.690;2023-05-16T02:56:15;11.10;99.90
18450;DHT22;9354;50.194;7.690;2023-05-16T02:58:43;11.10;99.90
18450;DHT22;9354;50.194;7.690;2023-05-16T03:01:10;11.10;99.90
18450;DHT22;9354;50.194;7.690;2023-05-16T03:03:38;11.00;99.90
18450;DHT22;9354;50.194;7.690;2023-05-16T03:06:07;11.00;99.90
18450;DHT22;9354;50.194;7.690;2023-05-16T03:08:34;11.00;99.90
18450;DHT22;9354;50.194;7.690;2023-05-16T03:11:02;11.00;99.90
18450;DHT22;9354;50.194;7.690;2023-05-16T03:13:29;10.90;99.90
18450;DHT22;9354;50.194;7.690;2023-05-16T03:15:56;10.90;99.90
18450;DHT22;9354;50.194;7.690;2023-05-16T03:18:24;10.90;99.90
18450;DHT22;9354;50.194;7.690;2023-05-16T03:20:51;10.90;99.90
18450;DHT22;9354;50.194;7.690;2023-05-16T03:23:21;10.90;99.90
18450;DHT22;9354;50.194;7.690;2023-05-16T03:25:48;10.80;99.90
18450;DHT22;9354;50.194;7.690;2023-05-16T03:28:16;10.80;99.90
18450;DHT22;9354;50.194;7.690;2023-05-16T03:30:44;10.80;99.90
18450;DHT22;9354;50.194;7.690;2023-05-16T03:33:11;10.80;99.90
18450;DHT22;9354;50.194;7.690;2023-05-16T03:35:39;10.80;99.90
18450;DHT22;9354;50.194;7.690;2023-05-16T03:38:06;10.70;99.90
18450;DHT22;9354;50.194;7.690;2023-05-16T03:40:35;10.70;99.90
18450;DHT22;9354;50.194;7.690;2023-05-16T03:43:03;10.80;99.90
18450;DHT22;9354;50.194;7.690;2023-05-16T03:45:30;10.80;99.90
18450;DHT22;9354;50.194;7.690;2023-05-16T03:47:57;10.80;99.90
18450;DHT22;9354;50.194;7.690;2023-05-16T03:50:25;10.80;99.90
18450;DHT22;9354;50.194;7.690;2023-05-16T03:52:52;10.80;99.90
18450;DHT22;9354;50.194;7.690;2023-05-16T03:55:20;10.70;99.90
18450;DHT22;9354;50.194;7.690;2023-05-16T03:57:49;10.70;99.90
18450;DHT22;9354;50.194;7.690;2023-05-16T04:00:17;10.70;99.90
18450;DHT22;9354;50.194;7.690;2023-05-16T04:02:45;10.70;99.90
18450;DHT22;9354;50.194;7.690;2023-05-16T04:05:12;10.70;99.90
18450;DHT22;9354;50.194;7.690;2023-05-16T04:07:40;10.70;99.90
18450;DHT22;9354;50.194;7.690;2023-05-16T04:10:08;10.70;99.90
18450;DHT22;9354;50.194;7.690;2023-05-16T04:12:36;10.70;99.90
18450;DHT22;9354;50.194;7.690;2023-05-16T04:15:06;10.70;99.90
18450;DHT22;9354;50.194;7.690;2023-05-16T04:17:33;10.70;99.90
18450;DHT22;9354;50.194;7.690;2023-05-16T04:20:01;10.70;99.90
18450;DHT22;9354;50.194;7.690;2023-05-16T04:22:29;10.70;99.90
18450;DHT22;9354;50.194;7.690;2023-05-16T04:24:56;10.70;99.90
18450;DHT22;9354;50.194;7.690;2023-05-16T04:27:24;10.70;99.90
18450;DHT22;9354;50.194;7.690;2023-05-16T04:29:51;10.70;99.90
18450;DHT22;9354;50.194;7.690;2023-05-16T04:32:20;10.70;99.90
18450;DHT22;9354;50.194;7.690;2023-05-16T04:34:48;10.70;99.90
18450;DHT22;9354;50.194;7.690;2023-05-16T04:37:18;10.70;99.90
18450;DHT22;9354;50.194;7.690;2023-05-16T04:39:46;10.70;99.90
18450;DHT22;9354;50.194;7.690;2023-05-16T04:42:13;10.80;99.90
18450;DHT22;9354;50.194;7.690;2023-05-16T04:44:41;10.80;99.90
18450;DHT22;9354;50.194;7.690;2023-05-16T04:47:09;10.80;99.90
18450;DHT22;9354;50.194;7.690;2023-05-16T04:49:37;10.80;99.90
18450;DHT22;9354;50.194;7.690;2023-05-16T04:52:05;10.80;99.90
18450;DHT22;9354;50.194;7.690;2023-05-16T04:54:34;10.80;99.90
18450;DHT22;9354;50.194;7.690;2023-05-16T04:57:01;10.80;99.90
18450;DHT22;9354;50.194;7.690;2023-05-16T04:59:28;10.80;99.90
18450;DHT22;9354;50.194;7.690;2023-05-16T05:01:56;10.70;99.90
18450;DHT22;9354;50.194;7.690;2023-05-16T05:04:23;10.70;99.90
18450;DHT22;9354;50.194;7.690;2023-05-16T05:06:52;10.70;99.90
18450;DHT22;9354;50.194;7.690;2023-05-16T05:09:19;10.70;99.90
18450;DHT22;9354;50.194;7.690;2023-05-16T05:11:47;10.70;99.90
18450;DHT22;9354;50.194;7.690;2023-05-16T05:14:14;10.60;99.90
18450;DHT22;9354;50.194;7.690;2023-05-16T05:16:41;10.60;99.90
18450;DHT22;9354;50.194;7.690;2023-05-16T05:19:09;10.60;99.90
18450;DHT22;9354;50.194;7.690;2023-05-16T05:21:36;10.60;99.90
18450;DHT22;9354;50.194;7.690;2023-05-16T05:24:05;10.60;99.90
18450;DHT22;9354;50.194;7.690;2023-05-16T05:26:33;10.60;99.90
18450;DHT22;9354;50.194;7.690;2023-05-16T05:29:00;10.50;99.90
18450;DHT22;9354;50.194;7.690;2023-05-16T05:31:28;10.50;99.90
18450;DHT22;9354;50.194;7.690;2023-05-16T05:33:55;10.40;99.90
18450;DHT22;9354;50.194;7.690;2023-05-16T05:36:22;10.40;99.90
18450;DHT22;9354;50.194;7.690;2023-05-16T05:38:50;10.40;99.90
18450;DHT22;9354;50.194;7.690;2023-05-16T05:41:19;10.40;99.90
18450;DHT22;9354;50.194;7.690;2023-05-16T05:43:46;10.40;99.90
18450;DHT22;9354;50.194;7.690;2023-05-16T05:46:14;10.40;99.90
18450;DHT22;9354;50.194;7.690;2023-05-16T05:48:42;10.40;99.90
18450;DHT22;9354;50.194;7.690;2023-05-16T05:51:10;10.30;99.90
18450;DHT22;9354;50.194;7.690;2023-05-16T05:53:39;10.30;99.90
18450;DHT22;9354;50.194;7.690;2023-05-16T05:56:06;10.20;99.90
18450;DHT22;9354;50.194;7.690;2023-05-16T05:58:35;10.20;99.90
18450;DHT22;9354;50.194;7.690;2023-05-16T06:01:03;10.10;99.90
18450;DHT22;9354;50.194;7.690;2023-05-16T06:03:30;10.00;99.90
18450;DHT22;9354;50.194;7.690;2023-05-16T06:05:58;10.00;99.90
18450;DHT22;9354;50.194;7.690;2023-05-16T06:08:25;10.00;99.90
18450;DHT22;9354;50.194;7.690;2023-05-16T06:10:52;10.00;99.90
18450;DHT22;9354;50.194;7.690;2023-05-16T06:13:20;9.90;99.90
18450;DHT22;9354;50.194;7.690;2023-05-16T06:15:50;9.90;99.90
18450;DHT22;9354;50.194;7.690;2023-05-16T06:18:18;9.90;99.90
18450;DHT22;9354;50.194;7.690;2023-05-16T06:20:46;9.90;99.90
18450;DHT22;9354;50.194;7.690;2023-05-16T06:23:13;9.90;99.90
18450;DHT22;9354;50.194;7.690;2023-05-16T06:25:40;9.90;99.90
18450;DHT22;9354;50.194;7.690;2023-05-16T06:28:08;9.90;99.90
18450;DHT22;9354;50.194;7.690;2023-05-16T06:30:35;9.90;99.90
18450;DHT22;9354;50.194;7.690;2023-05-16T06:33:04;9.90;99.90
18450;DHT22;9354;50.194;7.690;2023-05-16T06:35:31;9.80;99.90
18450;DHT22;9354;50.194;7.690;2023-05-16T06:37:59;9.80;99.90
18450;DHT22;9354;50.194;7.690;2023-05-16T06:40:26;9.80;99.90
18450;DHT22;9354;50.194;7.690;2023-05-16T06:42:53;9.70;99.90
18450;DHT22;9354;50.194;7.690;2023-05-16T06:45:23;9.70;99.90
18450;DHT22;9354;50.194;7.690;2023-05-16T06:47:50;9.70;99.90
18450;DHT22;9354;50.194;7.690;2023-05-16T06:50:19;9.70;99.90
18450;DHT22;9354;50.194;7.690;2023-05-16T06:52:47;9.70;99.90
18450;DHT22;9354;50.194;7.690;2023-05-16T06:55:14;9.60;99.90
18450;DHT22;9354;50.194;7.690;2023-05-16T06:57:41;9.60;99.90
18450;DHT22;9354;50.194;7.690;2023-05-16T07:00:09;9.60;99.90
18450;DHT22;9354;50.194;7.690;2023-05-16T07:02:37;9.60;99.90
18450;DHT22;9354;50.194;7.690;2023-05-16T07:05:06;9.60;99.90
18450;DHT22;9354;50.194;7.690;2023-05-16T07:07:34;9.60;99.90
18450;DHT22;9354;50.194;7.690;2023-05-16T07:10:02;9.60;99.90
18450;DHT22;9354;50.194;7.690;2023-05-16T07:12:29;9.70;99.90
18450;DHT22;9354;50.194;7.690;2023-05-16T07:14:57;9.70;99.90
18450;DHT22;9354;50.194;7.690;2023-05-16T07:17:24;9.70;99.90
18450;DHT22;9354;50.194;7.690;2023-05-16T07:19:52;9.80;99.90
18450;DHT22;9354;50.194;7.690;2023-05-16T07:22:19;9.80;99.90
18450;DHT22;9354;50.194;7.690;2023-05-16T07:24:48;9.80;99.90
18450;DHT22;9354;50.194;7.690;2023-05-16T07:27:15;9.90;99.90
18450;DHT22;9354;50.194;7.690;2023-05-16T07:29:43;9.90;99.90
18450;DHT22;9354;50.194;7.690;2023-05-16T07:32:10;9.90;99.90
18450;DHT22;9354;50.194;7.690;2023-05-16T07:34:38;9.90;99.90
18450;DHT22;9354;50.194;7.690;2023-05-16T07:37:05;9.90;99.90
18450;DHT22;9354;50.194;7.690;2023-05-16T07:39:37;9.80;99.90
18450;DHT22;9354;50.194;7.690;2023-05-16T07:42:07;9.80;99.90
18450;DHT22;9354;50.194;7.690;2023-05-16T07:44:35;9.80;99.90
18450;DHT22;9354;50.194;7.690;2023-05-16T07:47:02;9.90;99.90
18450;DHT22;9354;50.194;7.690;2023-05-16T07:49:30;9.90;99.90
18450;DHT22;9354;50.194;7.690;2023-05-16T07:51:57;10.00;99.90
18450;DHT22;9354;50.194;7.690;2023-05-16T07:54:25;10.00;99.90
18450;DHT22;9354;50.194;7.690;2023-05-16T07:56:52;10.00;99.90
18450;DHT22;9354;50.194;7.690;2023-05-16T07:59:21;10.00;99.90
18450;DHT22;9354;50.194;7.690;2023-05-16T08:01:49;9.90;99.90
18450;DHT22;9354;50.194;7.690;2023-05-16T08:04:16;9.90;99.90
18450;DHT22;9354;50.194;7.690;2023-05-16T08:06:43;9.90;99.90
18450;DHT22;9354;50.194;7.690;2023-05-16T08:09:11;9.90;99.90
18450;DHT22;9354;50.194;7.690;2023-05-16T08:11:38;9.80;99.90
18450;DHT22;9354;50.194;7.690;2023-05-16T08:14:06;9.80;99.90
18450;DHT22;9354;50.194;7.690;2023-05-16T08:16:36;9.80;99.90
18450;DHT22;9354;50.194;7.690;2023-05-16T08:19:04;9.80;99.90
18450;DHT22;9354;50.194;7.690;2023-05-16T08:21:31;9.80;99.90
18450;DHT22;9354;50.194;7.690;2023-05-16T08:23:59;9.80;99.90
18450;DHT22;9354;50.194;7.690;2023-05-16T08:26:26;9.70;99.90
18450;DHT22;9354;50.194;7.690;2023-05-16T08:28:53;9.70;99.90
18450;DHT22;9354;50.194;7.690;2023-05-16T08:31:21;9.70;99.90
18450;DHT22;9354;50.194;7.690;2023-05-16T08:33:49;9.70;99.90
18450;DHT22;9354;50.194;7.690;2023-05-16T08:36:17;9.70;99.90
18450;DHT22;9354;50.194;7.690;2023-05-16T08:38:45;9.60;99.90
18450;DHT22;9354;50.194;7.690;2023-05-16T08:41:12;9.60;99.90
18450;DHT22;9354;50.194;7.690;2023-05-16T08:43:40;9.60;99.90
18450;DHT22;9354;50.194;7.690;2023-05-16T08:46:07;9.60;99.90
18450;DHT22;9354;50.194;7.690;2023-05-16T08:48:37;9.70;99.90
18450;DHT22;9354;50.194;7.690;2023-05-16T08:51:08;9.70;99.90
18450;DHT22;9354;50.194;7.690;2023-05-16T08:53:39;9.80;99.90
18450;DHT22;9354;50.194;7.690;2023-05-16T08:56:08;9.90;99.90
18450;DHT22;9354;50.194;7.690;2023-05-16T08:58:37;10.00;99.90
18450;DHT22;9354;50.194;7.690;2023-05-16T09:01:04;10.10;99.90
18450;DHT22;9354;50.194;7.690;2023-05-16T09:03:35;10.20;99.90
18450;DHT22;9354;50.194;7.690;2023-05-16T09:06:04;10.40;99.90
18450;DHT22;9354;50.194;7.690;2023-05-16T09:08:33;10.40;99.90
18450;DHT22;9354;50.194;7.690;2023-05-16T09:11:01;10.50;99.90
18450;DHT22;9354;50.194;7.690;2023-05-16T09:13:28;10.50;99.90
18450;DHT22;9354;50.194;7.690;2023-05-16T09:16:09;10.60;99.90
18450;DHT22;9354;50.194;7.690;2023-05-16T09:18:37;10.70;99.90
18450;DHT22;9354;50.194;7.690;2023-05-16T09:21:05;10.80;99.90
18450;DHT22;9354;50.194;7.690;2023-05-16T09:23:35;10.90;99.90
18450;DHT22;9354;50.194;7.690;2023-05-16T09:26:04;10.90;99.90
18450;DHT22;9354;50.194;7.690;2023-05-16T09:28:33;11.00;99.90
18450;DHT22;9354;50.194;7.690;2023-05-16T09:31:00;11.00;99.90
18450;DHT22;9354;50.194;7.690;2023-05-16T09:33:28;11.10;99.90
18450;DHT22;9354;50.194;7.690;2023-05-16T09:35:57;11.10;99.90
18450;DHT22;9354;50.194;7.690;2023-05-16T09:38:25;11.20;99.90
18450;DHT22;9354;50.194;7.690;2023-05-16T09:40:54;11.20;99.90
18450;DHT22;9354;50.194;7.690;2023-05-16T09:43:24;11.40;99.90
18450;DHT22;9354;50.194;7.690;2023-05-16T09:45:52;11.50;99.90
18450;DHT22;9354;50.194;7.690;2023-05-16T09:48:21;11.60;99.90
18450;DHT22;9354;50.194;7.690;2023-05-16T09:50:50;11.70;99.90
18450;DHT22;9354;50.194;7.690;2023-05-16T09:53:25;11.80;99.90
18450;DHT22;9354;50.194;7.690;2023-05-16T09:56:02;11.90;99.90
18450;DHT22;9354;50.194;7.690;2023-05-16T09:58:31;12.10;99.90
18450;DHT22;9354;50.194;7.690;2023-05-16T10:00:58;12.30;99.90
18450;DHT22;9354;50.194;7.690;2023-05-16T10:03:27;12.40;99.90
18450;DHT22;9354;50.194;7.690;2023-05-16T10:05:55;12.40;99.90
18450;DHT22;9354;50.194;7.690;2023-05-16T10:08:24;12.30;99.90
18450;DHT22;9354;50.194;7.690;2023-05-16T10:10:53;12.20;99.90
18450;DHT22;9354;50.194;7.690;2023-05-16T10:13:25;12.20;99.90
18450;DHT22;9354;50.194;7.690;2023-05-16T10:15:55;12.20;99.90
18450;DHT22;9354;50.194;7.690;2023-05-16T10:18:27;12.50;99.90
18450;DHT22;9354;50.194;7.690;2023-05-16T10:20:56;12.70;99.90
18450;DHT22;9354;50.194;7.690;2023-05-16T10:23:25;12.90;99.90
18450;DHT22;9354;50.194;7.690;2023-05-16T10:25:53;13.20;99.90
18450;DHT22;9354;50.194;7.690;2023-05-16T10:28:23;13.50;99.90
18450;DHT22;9354;50.194;7.690;2023-05-16T10:30:51;13.70;99.90
18450;DHT22;9354;50.194;7.690;2023-05-16T10:33:20;13.80;99.90
18450;DHT22;9354;50.194;7.690;2023-05-16T10:35:47;13.80;99.90
18450;DHT22;9354;50.194;7.690;2023-05-16T10:38:17;13.80;99.90
18450;DHT22;9354;50.194;7.690;2023-05-16T10:40:46;14.00;99.90
18450;DHT22;9354;50.194;7.690;2023-05-16T10:43:23;14.10;99.90
18450;DHT22;9354;50.194;7.690;2023-05-16T10:45:55;14.20;99.90
18450;DHT22;9354;50.194;7.690;2023-05-16T10:48:30;14.40;99.90
18450;DHT22;9354;50.194;7.690;2023-05-16T10:50:58;14.60;99.90
18450;DHT22;9354;50.194;7.690;2023-05-16T10:53:31;14.70;99.90
18450;DHT22;9354;50.194;7.690;2023-05-16T10:56:09;15.00;99.90
18450;DHT22;9354;50.194;7.690;2023-05-16T10:58:46;15.20;99.90
18450;DHT22;9354;50.194;7.690;2023-05-16T11:01:18;15.30;99.90
18450;DHT22;9354;50.194;7.690;2023-05-16T11:04:06;15.40;99.90
18450;DHT22;9354;50.194;7.690;2023-05-16T11:06:35;15.50;99.90
18450;DHT22;9354;50.194;7.690;2023-05-16T11:09:18;15.50;99.90
18450;DHT22;9354;50.194;7.690;2023-05-16T11:11:56;15.60;99.90
18450;DHT22;9354;50.194;7.690;2023-05-16T11:14:27;15.60;99.90
18450;DHT22;9354;50.194;7.690;2023-05-16T11:17:01;15.60;99.90
18450;DHT22;9354;50.194;7.690;2023-05-16T11:19:33;15.60;99.90
18450;DHT22;9354;50.194;7.690;2023-05-16T11:22:21;15.70;99.90
18450;DHT22;9354;50.194;7.690;2023-05-16T11:24:54;15.90;99.90
18450;DHT22;9354;50.194;7.690;2023-05-16T11:27:24;16.00;99.90
18450;DHT22;9354;50.194;7.690;2023-05-16T11:29:56;16.10;99.90
18450;DHT22;9354;50.194;7.690;2023-05-16T11:32:24;16.00;99.90
18450;DHT22;9354;50.194;7.690;2023-05-16T11:34:52;15.90;99.90
18450;DHT22;9354;50.194;7.690;2023-05-16T11:37:19;15.90;99.90
18450;DHT22;9354;50.194;7.690;2023-05-16T11:39:47;15.90;99.90
18450;DHT22;9354;50.194;7.690;2023-05-16T11:42:15;16.00;99.90
18450;DHT22;9354;50.194;7.690;2023-05-16T11:44:43;16.10;99.90
18450;DHT22;9354;50.194;7.690;2023-05-16T11:47:12;16.00;99.90
18450;DHT22;9354;50.194;7.690;2023-05-16T11:49:39;16.00;99.90
18450;DHT22;9354;50.194;7.690;2023-05-16T11:52:07;16.00;99.90
18450;DHT22;9354;50.194;7.690;2023-05-16T11:54:35;16.00;99.90
18450;DHT22;9354;50.194;7.690;2023-05-16T11:57:03;15.90;99.90
18450;DHT22;9354;50.194;7.690;2023-05-16T11:59:31;15.90;99.90
18450;DHT22;9354;50.194;7.690;2023-05-16T12:02:02;15.90;99.90
18450;DHT22;9354;50.194;7.690;2023-05-16T12:04:31;16.00;99.90
18450;DHT22;9354;50.194;7.690;2023-05-16T12:07:00;16.00;99.90
18450;DHT22;9354;50.194;7.690;2023-05-16T12:09:27;15.80;99.90
18450;DHT22;9354;50.194;7.690;2023-05-16T12:11:55;15.60;99.90
18450;DHT22;9354;50.194;7.690;2023-05-16T12:14:23;15.60;99.90
18450;DHT22;9354;50.194;7.690;2023-05-16T12:16:51;15.50;99.90
18450;DHT22;9354;50.194;7.690;2023-05-16T12:19:20;15.60;99.90
18450;DHT22;9354;50.194;7.690;2023-05-16T12:21:52;15.80;99.90
18450;DHT22;9354;50.194;7.690;2023-05-16T12:24:20;15.90;99.90
18450;DHT22;9354;50.194;7.690;2023-05-16T12:26:47;16.00;99.90
18450;DHT22;9354;50.194;7.690;2023-05-16T12:29:15;16.20;99.90
18450;DHT22;9354;50.194;7.690;2023-05-16T12:31:42;16.20;99.90
18450;DHT22;9354;50.194;7.690;2023-05-16T12:34:17;16.10;99.90
18450;DHT22;9354;50.194;7.690;2023-05-16T12:36:51;15.90;99.90
18450;DHT22;9354;50.194;7.690;2023-05-16T12:39:19;15.80;99.90
18450;DHT22;9354;50.194;7.690;2023-05-16T12:41:48;15.70;99.90
18450;DHT22;9354;50.194;7.690;2023-05-16T12:44:16;15.90;99.90
18450;DHT22;9354;50.194;7.690;2023-05-16T12:46:45;16.10;99.90
18450;DHT22;9354;50.194;7.690;2023-05-16T12:49:13;16.20;99.90
18450;DHT22;9354;50.194;7.690;2023-05-16T12:51:48;16.10;99.90
18450;DHT22;9354;50.194;7.690;2023-05-16T12:54:17;16.00;99.90
18450;DHT22;9354;50.194;7.690;2023-05-16T12:56:45;15.80;99.90
18450;DHT22;9354;50.194;7.690;2023-05-16T12:59:13;15.70;99.90
18450;DHT22;9354;50.194;7.690;2023-05-16T13:01:40;15.70;99.90
18450;DHT22;9354;50.194;7.690;2023-05-16T13:04:09;15.90;99.90
18450;DHT22;9354;50.194;7.690;2023-05-16T13:06:41;15.90;99.90
18450;DHT22;9354;50.194;7.690;2023-05-16T13:09:08;15.80;99.90
18450;DHT22;9354;50.194;7.690;2023-05-16T13:11:38;15.60;99.90
18450;DHT22;9354;50.194;7.690;2023-05-16T13:14:05;15.50;99.90
18450;DHT22;9354;50.194;7.690;2023-05-16T13:16:32;15.50;99.90
18450;DHT22;9354;50.194;7.690;2023-05-16T13:19:00;15.60;99.90
18450;DHT22;9354;50.194;7.690;2023-05-16T13:21:28;15.90;99.90
18450;DHT22;9354;50.194;7.690;2023-05-16T13:23:57;15.90;99.90
18450;DHT22;9354;50.194;7.690;2023-05-16T13:26:24;15.90;99.90
18450;DHT22;9354;50.194;7.690;2023-05-16T13:28:53;15.90;99.90
18450;DHT22;9354;50.194;7.690;2023-05-16T13:31:21;16.10;99.90
18450;DHT22;9354;50.194;7.690;2023-05-16T13:33:48;16.30;99.90
18450;DHT22;9354;50.194;7.690;2023-05-16T13:36:15;16.20;99.90
18450;DHT22;9354;50.194;7.690;2023-05-16T13:38:43;16.10;99.90
18450;DHT22;9354;50.194;7.690;2023-05-16T13:41:10;16.10;99.90
18450;DHT22;9354;50.194;7.690;2023-05-16T13:43:38;16.30;99.90
18450;DHT22;9354;50.194;7.690;2023-05-16T13:46:07;16.50;99.90
18450;DHT22;9354;50.194;7.690;2023-05-16T13:48:34;16.70;99.90
18450;DHT22;9354;50.194;7.690;2023-05-16T13:51:01;16.90;99.90
18450;DHT22;9354;50.194;7.690;2023-05-16T13:53:29;16.90;99.90
18450;DHT22;9354;50.194;7.690;2023-05-16T13:55:56;16.70;99.90
18450;DHT22;9354;50.194;7.690;2023-05-16T13:58:23;16.60;99.90
18450;DHT22;9354;50.194;7.690;2023-05-16T14:00:53;16.60;99.90
18450;DHT22;9354;50.194;7.690;2023-05-16T14:03:23;16.70;99.90
18450;DHT22;9354;50.194;7.690;2023-05-16T14:05:50;16.60;99.90
18450;DHT22;9354;50.194;7.690;2023-05-16T14:08:18;16.50;99.90
18450;DHT22;9354;50.194;7.690;2023-05-16T14:10:45;16.50;99.90
18450;DHT22;9354;50.194;7.690;2023-05-16T14:13:13;16.40;99.90
18450;DHT22;9354;50.194;7.690;2023-05-16T14:15:40;16.40;99.90
18450;DHT22;9354;50.194;7.690;2023-05-16T14:18:08;16.40;99.90
18450;DHT22;9354;50.194;7.690;2023-05-16T14:20:36;16.30;99.90
18450;DHT22;9354;50.194;7.690;2023-05-16T14:23:04;16.20;99.90
18450;DHT22;9354;50.194;7.690;2023-05-16T14:25:31;16.10;99.90
18450;DHT22;9354;50.194;7.690;2023-05-16T14:27:59;16.00;99.90
18450;DHT22;9354;50.194;7.690;2023-05-16T14:30:26;15.80;99.90
18450;DHT22;9354;50.194;7.690;2023-05-16T14:32:53;15.70;99.90
18450;DHT22;9354;50.194;7.690;2023-05-16T14:35:21;15.50;99.90
18450;DHT22;9354;50.194;7.690;2023-05-16T14:37:49;15.40;99.90
18450;DHT22;9354;50.194;7.690;2023-05-16T14:40:17;15.20;99.90
18450;DHT22;9354;50.194;7.690;2023-05-16T14:42:46;15.10;99.90
18450;DHT22;9354;50.194;7.690;2023-05-16T14:45:14;15.00;99.90
18450;DHT22;9354;50.194;7.690;2023-05-16T14:47:41;14.90;99.90
18450;DHT22;9354;50.194;7.690;2023-05-16T14:50:09;15.00;99.90
18450;DHT22;9354;50.194;7.690;2023-05-16T14:52:39;15.20;99.90
18450;DHT22;9354;50.194;7.690;2023-05-16T14:55:08;15.30;99.90
18450;DHT22;9354;50.194;7.690;2023-05-16T14:57:36;15.50;99.90
18450;DHT22;9354;50.194;7.690;2023-05-16T15:00:04;15.60;99.90
18450;DHT22;9354;50.194;7.690;2023-05-16T15:02:32;15.70;99.90
18450;DHT22;9354;50.194;7.690;2023-05-16T15:04:59;15.90;99.90
18450;DHT22;9354;50.194;7.690;2023-05-16T15:07:27;15.90;99.90
18450;DHT22;9354;50.194;7.690;2023-05-16T15:09:54;15.80;99.90
18450;DHT22;9354;50.194;7.690;2023-05-16T15:12:23;15.70;99.90
18450;DHT22;9354;50.194;7.690;2023-05-16T15:14:50;15.70;99.90
18450;DHT22;9354;50.194;7.690;2023-05-16T15:17:18;15.80;99.90
18450;DHT22;9354;50.194;7.690;2023-05-16T15:19:45;15.90;99.90
18450;DHT22;9354;50.194;7.690;2023-05-16T15:22:14;16.10;99.90
18450;DHT22;9354;50.194;7.690;2023-05-16T15:24:41;16.20;99.90
18450;DHT22;9354;50.194;7.690;2023-05-16T15:27:09;16.30;99.90
18450;DHT22;9354;50.194;7.690;2023-05-16T15:29:38;16.30;99.90
18450;DHT22;9354;50.194;7.690;2023-05-16T15:32:06;16.10;99.90
18450;DHT22;9354;50.194;7.690;2023-05-16T15:34:38;15.90;99.90
18450;DHT22;9354;50.194;7.690;2023-05-16T15:37:05;15.80;99.90
18450;DHT22;9354;50.194;7.690;2023-05-16T15:39:33;15.70;99.90
18450;DHT22;9354;50.194;7.690;2023-05-16T15:42:01;15.60;99.90
18450;DHT22;9354;50.194;7.690;2023-05-16T15:44:31;15.50;99.90
18450;DHT22;9354;50.194;7.690;2023-05-16T15:47:00;15.30;99.90
18450;DHT22;9354;50.194;7.690;2023-05-16T15:49:28;15.10;99.90
18450;DHT22;9354;50.194;7.690;2023-05-16T15:51:56;14.90;99.90
18450;DHT22;9354;50.194;7.690;2023-05-16T15:54:23;14.80;99.90
18450;DHT22;9354;50.194;7.690;2023-05-16T15:56:50;14.60;99.90